Latest Coastal Weather Observations for Lady Elliot Island

IDQ60701

Issued at 5:01 am EST Friday 20 January 2017 (issued every 10 minutes, with the page automatically refreshed every 10 minutes)

About coastal observations | Map of coastal stations | Coastal observations for QLD | Marine services | Other Formats
Station Details ID: 039059 Name: LADY ELLIOT ISLAND Lat: -24.11 Lon: 152.72 Height: 3.6 m
Data from the previous 72 hours. | See also: Recent months at Lady Elliot Island
Date/Time
EST
Temp
°C
Wind Pressure Rain since
9am
mm
Weather Cloud Vis
km
Sea
Height
m
Swell
Dir  Spd
kts
Gust
kts
hPa Trend Height
m
Period
s
Dir
20/04:30am 27.0 NNW 10 14 1008.3 - 0.0 - - - - - - -
20/04:00am 27.0 N 8 11 1008.3 - 0.0 - - - - - - -
20/03:30am 27.1 N 8 11 1008.3 - 0.0 - - - - - - -
20/03:00am 27.1 NNW 5 7 1008.4 - 0.0 - - - - - - -
20/02:30am 27.1 NNW 5 6 1008.5 - 0.0 - - - - - - -
20/02:00am 27.1 N 4 6 1008.7 - 0.0 - - - - - - -
20/01:30am 27.1 N 6 8 1008.7 - 0.0 - - - - - - -
20/01:00am 27.1 N 3 6 1008.8 - 0.0 - - - - - - -
20/12:30am 26.9 N 4 6 1009.1 - 0.0 - - - - - - -
20/12:00am 26.9 N 4 6 1009.2 - 0.0 - - - - - - -
 
Date/Time
EST
Temp
°C
Wind Pressure Rain since
9am
mm
Weather Cloud Vis
km
Sea
Height
m
Swell
Dir  Spd
kts
Gust
kts
hPa Trend Height
m
Period
s
Dir
19/11:30pm 27.0 N 3 4 1009.4 - 0.0 - - - - - - -
19/11:00pm 26.9 CALM 0 4 1009.7 - 0.0 - - - - - - -
19/10:30pm 26.9 NE 3 5 1009.7 - 0.0 - - - - - - -
19/10:00pm 27.0 NE 2 5 1010.0 - 0.0 - - - - - - -
19/09:30pm 27.1 ENE 2 4 1010.0 - 0.0 - - - - - - -
19/09:00pm 26.8 ENE 3 5 1009.8 - 0.0 - - - - - - -
19/08:30pm 27.0 NE 3 5 1009.6 - 0.0 - - - - - - -
19/08:00pm 27.1 ENE 4 6 1009.5 - 0.0 - - - - - - -
19/07:30pm 27.1 ENE 4 6 1009.4 - 0.0 - - - - - - -
19/07:00pm 27.4 ENE 4 6 1009.1 - 0.0 - - - - - - -
19/06:30pm 27.8 ENE 4 6 1008.7 - 0.0 - - - - - - -
19/06:00pm 28.4 NE 5 8 1008.3 - 0.0 - - - - - - -
19/05:30pm 28.8 NNE 5 8 1007.7 - 0.0 - - - - - - -
19/05:00pm 29.0 NNE 5 7 1007.3 - 0.0 - - - - - - -
19/04:30pm 29.2 N 6 10 1007.1 - 0.0 - - - - - - -
19/04:00pm 28.3 N 8 12 1007.3 - 0.0 - - - - - - -
19/03:30pm 30.0 N 8 11 1007.8 - 0.0 - - - - - - -
19/03:00pm 30.6 N 8 11 1008.1 - 0.0 - - - - - - -
19/02:30pm 29.3 NNW 8 11 1008.3 - 0.0 - - - - - - -
19/02:00pm 30.0 NNW 9 11 1008.7 - 0.0 - - - - - - -
19/01:30pm 30.0 NNW 9 12 1009.0 - 0.0 - - - - - - -
19/01:00pm 30.4 NNW 12 15 1009.1 - 0.0 - - - - - - -
19/12:30pm 29.7 NNW 12 14 1009.6 - 0.0 - - - - - - -
19/12:00pm 29.9 NNW 10 14 1010.1 - 0.0 - - - - - - -
19/11:30am 29.6 NNW 8 11 1010.6 - 0.0 - - - - - - -
19/11:00am 29.7 NW 8 11 1010.8 - 0.0 - - - - - - -
19/10:30am 29.3 NW 9 14 1010.7 - 0.0 - - - - - - -
19/10:00am 29.4 NW 9 12 1010.7 - 0.0 - - - - - - -
19/09:30am 29.8 NNW 7 11 1011.2 - 0.0 - - - - - - -
19/09:00am 28.9 NNW 8 11 1011.2 - 0.0 - - - - - - -
19/08:30am 28.6 NW 10 15 1010.7 - 0.0 - - - - - - -
19/08:00am 28.4 NW 9 13 1010.9 - 0.0 - - - - - - -
19/07:30am 28.1 NW 9 12 1011.1 - 0.0 - - - - - - -
19/07:00am 27.8 NW 8 13 1010.8 - 0.0 - - - - - - -
19/06:30am 27.2 NNW 9 15 1010.3 - 0.0 - - - - - - -
19/06:00am 26.9 NW 9 14 1010.3 - 0.0 - - - - - - -
19/05:30am 26.6 NW 9 13 1010.3 - 0.0 - - - - - - -
19/05:00am 26.6 NW 8 13 1010.1 - 0.0 - - - - - - -
19/04:30am 26.6 NNW 9 13 1009.7 - 0.0 - - - - - - -
19/04:00am 26.9 NNW 11 16 1009.6 - 0.0 - - - - - - -
19/03:30am 26.7 NNW 12 16 1009.3 - 0.0 - - - - - - -
19/03:00am 26.7 NNW 11 15 1009.5 - 0.0 - - - - - - -
19/02:30am 26.7 NNW 11 15 1009.6 - 0.0 - - - - - - -
19/02:00am 26.7 N 12 15 1009.4 - 0.0 - - - - - - -
19/01:30am 26.7 N 12 15 1009.7 - 0.0 - - - - - - -
19/01:00am 26.8 N 11 15 1010.0 - 0.0 - - - - - - -
19/12:30am 26.9 N 8 13 1010.3 - 0.0 - - - - - - -
19/12:00am 26.9 N 8 11 1010.6 - 0.0 - - - - - - -
 
Date/Time
EST
Temp
°C
Wind Pressure Rain since
9am
mm
Weather Cloud Vis
km
Sea
Height
m
Swell
Dir  Spd
kts
Gust
kts
hPa Trend Height
m
Period
s
Dir
18/11:30pm 27.0 N 9 14 1010.9 - 0.0 - - - - - - -
18/11:00pm 27.0 N 8 13 1011.2 - 0.0 - - - - - - -
18/10:30pm 27.0 N 8 11 1011.3 - 0.0 - - - - - - -
18/10:00pm 27.0 NNE 8 11 1011.4 - 0.0 - - - - - - -
18/09:30pm 27.0 NNE 7 11 1011.4 - 0.0 - - - - - - -
18/09:00pm 27.0 NNE 6 10 1011.3 - 0.0 - - - - - - -
18/08:30pm 26.9 NNE 7 11 1011.2 - 0.0 - - - - - - -
18/08:00pm 27.1 NNE 7 11 1011.2 - 0.0 - - - - - - -
18/07:30pm 27.2 NNE 7 10 1010.9 - 0.0 - - - - - - -
18/07:00pm 27.3 NNE 6 9 1010.8 - 0.0 - - - - - - -
18/06:30pm 27.7 NNE 7 11 1010.9 - 0.0 - - - - - - -
18/06:00pm 28.4 NNE 5 9 1011.0 - 0.0 - - - - - - -
18/05:30pm 28.8 NE 5 8 1011.0 - 0.0 - - - - - - -
18/05:00pm 29.2 NNE 5 8 1010.9 - 0.0 - - - - - - -
18/04:30pm 29.7 N 5 6 1011.0 - 0.0 - - - - - - -
18/04:00pm 29.5 NNE 5 6 1011.2 - 0.0 - - - - - - -
18/03:30pm 29.6 NNE 5 7 1011.3 - 0.0 - - - - - - -
18/03:00pm 29.5 NNE 5 7 1011.6 - 0.0 - - - - - - -
18/02:30pm 29.8 NE 5 6 1012.0 - 0.0 - - - - - - -
18/02:00pm 30.1 ENE 5 8 1012.2 - 0.0 - - - - - - -
18/01:30pm 30.6 NE 5 7 1012.6 - 0.0 - - - - - - -
18/01:00pm 30.0 NE 5 7 1013.0 - 0.0 - - - - - - -
18/12:30pm 30.5 NE 6 8 1013.5 - 0.0 - - - - - - -
18/12:00pm 29.7 NE 5 7 1013.8 - 0.0 - - - - - - -
18/11:30am 29.9 NE 5 7 1014.1 - 0.0 - - - - - - -
18/11:00am 28.9 NE 5 6 1014.3 - 0.0 - - - - - - -
18/10:30am 29.8 NNE 5 7 1014.5 - 0.0 - - - - - - -
18/10:00am 28.9 ENE 5 6 1014.7 - 0.0 - - - - - - -
18/09:30am 29.6 ENE 4 5 1014.7 - 0.0 - - - - - - -
18/09:00am 29.2 ENE 4 5 1014.7 - 0.0 - - - - - - -
18/08:30am 28.6 ENE 4 6 1014.7 - 0.0 - - - - - - -
18/08:00am 28.7 E 4 6 1014.7 - 0.0 - - - - - - -
18/07:30am 28.8 ENE 4 6 1014.4 - 0.0 - - - - - - -
18/07:00am 28.3 NE 4 6 1014.0 - 0.0 - - - - - - -
18/06:30am 27.4 NE 4 6 1013.9 - 0.0 - - - - - - -
18/06:00am 26.6 ENE 5 8 1013.5 - 0.0 - - - - - - -
18/05:30am 25.7 ENE 4 6 1013.4 - 0.0 - - - - - - -
18/05:00am 25.7 NE 3 6 1013.0 - 0.0 - - - - - - -
18/04:30am 25.7 NE 4 6 1012.9 - 0.0 - - - - - - -
18/04:00am 25.8 NE 4 7 1012.7 - 0.0 - - - - - - -
18/03:30am 25.8 ENE 4 7 1012.7 - 0.0 - - - - - - -
18/03:00am 25.9 NE 5 8 1012.9 - 0.0 - - - - - - -
18/02:30am 25.8 NE 5 9 1013.0 - 0.0 - - - - - - -
18/02:00am 26.1 ENE 8 11 1013.1 - 0.0 - - - - - - -
18/01:30am 26.3 ENE 8 13 1013.5 - 0.0 - - - - - - -
18/01:00am 26.2 ENE 9 14 1013.8 - 0.0 - - - - - - -
18/12:30am 26.4 ENE 9 13 1014.1 - 0.0 - - - - - - -
18/12:00am 26.4 ENE 11 15 1014.5 - 0.0 - - - - - - -
 
Date/Time
EST
Temp
°C
Wind Pressure Rain since
9am
mm
Weather Cloud Vis
km
Sea
Height
m
Swell
Dir  Spd
kts
Gust
kts
hPa Trend Height
m
Period
s
Dir
17/11:30pm 26.5 ENE 11 16 1014.9 - 0.0 - - - - - - -
17/11:00pm 26.6 ENE 12 16 1015.2 - 0.0 - - - - - - -
17/10:30pm 26.6 E 13 17 1015.4 - 0.0 - - - - - - -
17/10:00pm 26.6 E 14 17 1015.4 - 0.0 - - - - - - -
17/09:30pm 26.5 E 14 18 1015.6 - 0.0 - - - - - - -
17/09:00pm 26.4 E 13 18 1015.5 - 0.0 - - - - - - -
17/08:30pm 26.4 E 14 17 1015.5 - 0.0 - - - - - - -
17/08:00pm 26.4 ESE 13 16 1015.3 - 0.0 - - - - - - -
17/07:30pm 26.5 ESE 13 15 1015.2 - 0.0 - - - - - - -
17/07:00pm 26.6 E 13 15 1014.9 - 0.0 - - - - - - -
17/06:30pm 26.8 E 11 15 1014.8 - 0.0 - - - - - - -
17/06:00pm 27.6 E 12 15 1014.5 - 0.0 - - - - - - -
17/05:30pm 28.0 ESE 12 14 1014.2 - 0.0 - - - - - - -
17/05:00pm 28.7 ESE 11 14 1014.1 - 0.0 - - - - - - -
17/04:30pm 28.7 ESE 11 14 1014.0 - 0.0 - - - - - - -
17/04:00pm 29.2 ESE 10 13 1014.1 - 0.0 - - - - - - -
17/03:30pm 29.4 ESE 10 14 1014.3 - 0.0 - - - - - - -
17/03:00pm 30.1 ESE 11 13 1014.3 - 0.0 - - - - - - -
17/02:30pm 30.1 ESE 11 14 1014.5 - 0.0 - - - - - - -
17/02:00pm 30.9 ESE 10 12 1014.7 - 0.0 - - - - - - -
17/01:30pm 30.4 ESE 10 11 1015.0 - 0.0 - - - - - - -
17/01:00pm 30.2 ESE 11 13 1015.2 - 0.0 - - - - - - -
17/12:30pm 30.6 ESE 10 13 1015.6 - 0.0 - - - - - - -
17/12:00pm 30.4 ESE 9 12 1015.6 - 0.0 - - - - - - -
17/11:30am 29.8 ESE 9 11 1015.8 - 0.0 - - - - - - -
17/11:00am 29.9 ESE 9 12 1016.0 - 0.0 - - - - - - -
17/10:30am 30.0 ESE 10 13 1016.1 - 0.0 - - - - - - -
17/10:00am 29.5 E 10 13 1016.2 - 0.0 - - - - - - -
17/09:30am 29.3 E 10 13 1016.1 - 0.0 - - - - - - -
17/09:00am 29.0 E 10 14 1016.1 - 2.4 - - - - - - -
17/08:30am 28.8 E 10 13 1016.1 - 2.4 - - - - - - -
17/08:00am 28.3 E 10 14 1015.9 - 2.4 - - - - - - -
17/07:30am 27.7 E 12 15 1015.6 - 2.4 - - - - - - -
17/07:00am 27.3 E 12 16 1015.4 - 2.4 - - - - - - -
17/06:30am 26.9 E 12 17 1015.1 - 2.4 - - - - - - -
17/06:00am 26.5 E 13 17 1014.9 - 2.4 - - - - - - -
17/05:30am 26.0 E 14 17 1014.6 - 2.4 - - - - - - -

Other Formats:

Comma delimited format used in spreadsheet applications
http://www.bom.gov.au/fwo/IDQ60701/IDQ60701.94388.axf

JavaScript Object Notation format (JSON) in row-major order
http://www.bom.gov.au/fwo/IDQ60701/IDQ60701.94388.json